sensor_id;sensor_type;location;lat;lon;timestamp;temperature;humidity
5806;DHT22;2929;50.810;8.342;2023-07-09T00:00:53;18.90;99.90
5806;DHT22;2929;50.810;8.342;2023-07-09T00:03:49;18.90;99.90
5806;DHT22;2929;50.810;8.342;2023-07-09T00:06:40;18.80;99.90
5806;DHT22;2929;50.810;8.342;2023-07-09T00:09:17;18.70;99.90
5806;DHT22;2929;50.810;8.342;2023-07-09T00:11:58;18.60;99.90
5806;DHT22;2929;50.810;8.342;2023-07-09T00:14:37;18.50;99.90
5806;DHT22;2929;50.810;8.342;2023-07-09T00:17:50;18.40;99.90
5806;DHT22;2929;50.810;8.342;2023-07-09T00:20:42;18.20;99.90
5806;DHT22;2929;50.810;8.342;2023-07-09T00:23:26;18.10;99.90
5806;DHT22;2929;50.810;8.342;2023-07-09T00:25:58;18.00;99.90
5806;DHT22;2929;50.810;8.342;2023-07-09T00:28:33;18.30;99.90
5806;DHT22;2929;50.810;8.342;2023-07-09T00:31:01;18.20;99.90
5806;DHT22;2929;50.810;8.342;2023-07-09T00:33:37;18.30;99.90
5806;DHT22;2929;50.810;8.342;2023-07-09T00:36:15;18.30;99.90
5806;DHT22;2929;50.810;8.342;2023-07-09T00:38:54;18.20;99.90
5806;DHT22;2929;50.810;8.342;2023-07-09T00:41:25;18.20;99.90
5806;DHT22;2929;50.810;8.342;2023-07-09T00:43:56;18.10;99.90
5806;DHT22;2929;50.810;8.342;2023-07-09T00:49:38;18.10;99.90
5806;DHT22;2929;50.810;8.342;2023-07-09T00:52:27;18.00;99.90
5806;DHT22;2929;50.810;8.342;2023-07-09T00:55:00;18.10;99.90
5806;DHT22;2929;50.810;8.342;2023-07-09T00:57:34;18.20;99.90
5806;DHT22;2929;50.810;8.342;2023-07-09T01:00:11;18.20;99.90
5806;DHT22;2929;50.810;8.342;2023-07-09T01:02:45;18.10;99.90
5806;DHT22;2929;50.810;8.342;2023-07-09T01:05:17;18.10;99.90
5806;DHT22;2929;50.810;8.342;2023-07-09T01:07:46;18.00;99.90
5806;DHT22;2929;50.810;8.342;2023-07-09T01:10:17;18.00;99.90
5806;DHT22;2929;50.810;8.342;2023-07-09T01:12:49;18.00;99.90
5806;DHT22;2929;50.810;8.342;2023-07-09T01:15:21;18.00;99.90
5806;DHT22;2929;50.810;8.342;2023-07-09T01:17:52;17.90;99.90
5806;DHT22;2929;50.810;8.342;2023-07-09T01:20:29;17.90;99.90
5806;DHT22;2929;50.810;8.342;2023-07-09T01:22:59;17.80;99.90
5806;DHT22;2929;50.810;8.342;2023-07-09T01:25:28;17.80;99.90
5806;DHT22;2929;50.810;8.342;2023-07-09T01:27:59;17.60;99.90
5806;DHT22;2929;50.810;8.342;2023-07-09T01:30:30;17.50;99.90
5806;DHT22;2929;50.810;8.342;2023-07-09T01:32:59;17.40;99.90
5806;DHT22;2929;50.810;8.342;2023-07-09T01:35:31;17.60;99.90
5806;DHT22;2929;50.810;8.342;2023-07-09T01:38:07;17.50;99.90
5806;DHT22;2929;50.810;8.342;2023-07-09T01:40:39;17.60;99.90
5806;DHT22;2929;50.810;8.342;2023-07-09T01:43:15;17.50;99.90
5806;DHT22;2929;50.810;8.342;2023-07-09T01:45:48;17.40;99.90
5806;DHT22;2929;50.810;8.342;2023-07-09T01:48:21;17.30;99.90
5806;DHT22;2929;50.810;8.342;2023-07-09T01:50:52;17.30;99.90
5806;DHT22;2929;50.810;8.342;2023-07-09T01:53:24;17.20;99.90
5806;DHT22;2929;50.810;8.342;2023-07-09T01:55:57;17.10;99.90
5806;DHT22;2929;50.810;8.342;2023-07-09T01:58:25;16.90;99.90
5806;DHT22;2929;50.810;8.342;2023-07-09T02:00:58;16.90;99.90
5806;DHT22;2929;50.810;8.342;2023-07-09T02:03:29;16.80;99.90
5806;DHT22;2929;50.810;8.342;2023-07-09T02:06:01;16.60;99.90
5806;DHT22;2929;50.810;8.342;2023-07-09T02:08:42;16.50;99.90
5806;DHT22;2929;50.810;8.342;2023-07-09T02:11:09;16.40;99.90
5806;DHT22;2929;50.810;8.342;2023-07-09T02:13:42;16.30;99.90
5806;DHT22;2929;50.810;8.342;2023-07-09T02:16:15;16.20;99.90
5806;DHT22;2929;50.810;8.342;2023-07-09T02:18:43;16.10;99.90
5806;DHT22;2929;50.810;8.342;2023-07-09T02:21:19;16.10;99.90
5806;DHT22;2929;50.810;8.342;2023-07-09T02:23:52;16.10;99.90
5806;DHT22;2929;50.810;8.342;2023-07-09T02:26:31;16.20;99.90
5806;DHT22;2929;50.810;8.342;2023-07-09T02:29:07;16.10;99.90
5806;DHT22;2929;50.810;8.342;2023-07-09T02:31:35;16.00;99.90
5806;DHT22;2929;50.810;8.342;2023-07-09T02:34:06;16.00;99.90
5806;DHT22;2929;50.810;8.342;2023-07-09T02:36:41;15.90;99.90
5806;DHT22;2929;50.810;8.342;2023-07-09T02:39:23;15.90;99.90
5806;DHT22;2929;50.810;8.342;2023-07-09T02:41:52;15.80;99.90
5806;DHT22;2929;50.810;8.342;2023-07-09T02:44:23;15.80;99.90
5806;DHT22;2929;50.810;8.342;2023-07-09T02:46:53;16.00;99.90
5806;DHT22;2929;50.810;8.342;2023-07-09T02:49:23;16.10;99.90
5806;DHT22;2929;50.810;8.342;2023-07-09T02:51:51;16.10;99.90
5806;DHT22;2929;50.810;8.342;2023-07-09T02:54:31;16.10;99.90
5806;DHT22;2929;50.810;8.342;2023-07-09T02:56:59;16.30;99.90
5806;DHT22;2929;50.810;8.342;2023-07-09T02:59:29;16.40;99.90
5806;DHT22;2929;50.810;8.342;2023-07-09T03:01:57;16.40;99.90
5806;DHT22;2929;50.810;8.342;2023-07-09T03:04:28;16.30;99.90
5806;DHT22;2929;50.810;8.342;2023-07-09T03:06:57;16.10;99.90
5806;DHT22;2929;50.810;8.342;2023-07-09T03:09:26;16.00;99.90
5806;DHT22;2929;50.810;8.342;2023-07-09T03:11:58;15.90;99.90
5806;DHT22;2929;50.810;8.342;2023-07-09T03:14:35;15.90;99.90
5806;DHT22;2929;50.810;8.342;2023-07-09T03:17:03;15.90;99.90
5806;DHT22;2929;50.810;8.342;2023-07-09T03:19:31;15.80;99.90
5806;DHT22;2929;50.810;8.342;2023-07-09T03:22:01;16.00;99.90
5806;DHT22;2929;50.810;8.342;2023-07-09T03:24:32;16.10;99.90
5806;DHT22;2929;50.810;8.342;2023-07-09T03:27:03;16.20;99.90
5806;DHT22;2929;50.810;8.342;2023-07-09T03:29:36;16.20;99.90
5806;DHT22;2929;50.810;8.342;2023-07-09T03:32:09;16.20;99.90
5806;DHT22;2929;50.810;8.342;2023-07-09T03:34:39;16.20;99.90
5806;DHT22;2929;50.810;8.342;2023-07-09T03:37:07;16.30;99.90
5806;DHT22;2929;50.810;8.342;2023-07-09T03:39:36;16.20;99.90
5806;DHT22;2929;50.810;8.342;2023-07-09T03:42:10;16.20;99.90
5806;DHT22;2929;50.810;8.342;2023-07-09T03:44:42;16.20;99.90
5806;DHT22;2929;50.810;8.342;2023-07-09T03:47:15;16.10;99.90
5806;DHT22;2929;50.810;8.342;2023-07-09T03:49:46;16.00;99.90
5806;DHT22;2929;50.810;8.342;2023-07-09T03:52:16;15.90;99.90
5806;DHT22;2929;50.810;8.342;2023-07-09T03:54:46;16.10;99.90
5806;DHT22;2929;50.810;8.342;2023-07-09T03:57:23;16.20;99.90
5806;DHT22;2929;50.810;8.342;2023-07-09T03:59:52;16.30;99.90
5806;DHT22;2929;50.810;8.342;2023-07-09T04:02:22;16.30;99.90
5806;DHT22;2929;50.810;8.342;2023-07-09T04:04:54;16.30;99.90
5806;DHT22;2929;50.810;8.342;2023-07-09T04:07:25;16.40;99.90
5806;DHT22;2929;50.810;8.342;2023-07-09T04:09:52;16.40;99.90
5806;DHT22;2929;50.810;8.342;2023-07-09T04:12:20;16.50;99.90
5806;DHT22;2929;50.810;8.342;2023-07-09T04:14:52;16.40;99.90
5806;DHT22;2929;50.810;8.342;2023-07-09T04:17:20;16.20;99.90
5806;DHT22;2929;50.810;8.342;2023-07-09T04:19:50;16.10;99.90
5806;DHT22;2929;50.810;8.342;2023-07-09T04:22:21;16.00;99.90
5806;DHT22;2929;50.810;8.342;2023-07-09T04:24:52;16.10;99.90
5806;DHT22;2929;50.810;8.342;2023-07-09T04:27:22;16.20;99.90
5806;DHT22;2929;50.810;8.342;2023-07-09T04:29:54;16.20;99.90
5806;DHT22;2929;50.810;8.342;2023-07-09T04:32:23;16.20;99.90
5806;DHT22;2929;50.810;8.342;2023-07-09T04:34:53;16.20;99.90
5806;DHT22;2929;50.810;8.342;2023-07-09T04:37:26;16.30;99.90
5806;DHT22;2929;50.810;8.342;2023-07-09T04:39:59;16.30;99.90
5806;DHT22;2929;50.810;8.342;2023-07-09T04:42:29;16.30;99.90
5806;DHT22;2929;50.810;8.342;2023-07-09T04:45:01;16.30;99.90
5806;DHT22;2929;50.810;8.342;2023-07-09T04:47:36;16.30;99.90
5806;DHT22;2929;50.810;8.342;2023-07-09T04:50:09;16.30;99.90
5806;DHT22;2929;50.810;8.342;2023-07-09T04:52:40;16.30;99.90
5806;DHT22;2929;50.810;8.342;2023-07-09T04:55:12;16.30;99.90
5806;DHT22;2929;50.810;8.342;2023-07-09T04:57:41;16.40;99.90
5806;DHT22;2929;50.810;8.342;2023-07-09T05:00:12;16.50;99.90
5806;DHT22;2929;50.810;8.342;2023-07-09T05:02:43;16.50;99.90
5806;DHT22;2929;50.810;8.342;2023-07-09T05:05:10;16.50;99.90
5806;DHT22;2929;50.810;8.342;2023-07-09T05:07:41;16.60;99.90
5806;DHT22;2929;50.810;8.342;2023-07-09T05:10:16;16.70;99.90
5806;DHT22;2929;50.810;8.342;2023-07-09T05:12:51;16.80;99.90
5806;DHT22;2929;50.810;8.342;2023-07-09T05:15:25;16.90;99.90
5806;DHT22;2929;50.810;8.342;2023-07-09T05:17:57;16.90;99.90
5806;DHT22;2929;50.810;8.342;2023-07-09T05:20:25;16.90;99.90
5806;DHT22;2929;50.810;8.342;2023-07-09T05:22:56;17.00;99.90
5806;DHT22;2929;50.810;8.342;2023-07-09T05:25:29;17.20;99.90
5806;DHT22;2929;50.810;8.342;2023-07-09T05:27:59;17.30;99.90
5806;DHT22;2929;50.810;8.342;2023-07-09T05:30:33;17.40;99.90
5806;DHT22;2929;50.810;8.342;2023-07-09T05:33:01;17.50;99.90
5806;DHT22;2929;50.810;8.342;2023-07-09T05:35:29;17.70;99.90
5806;DHT22;2929;50.810;8.342;2023-07-09T05:37:56;17.70;99.90
5806;DHT22;2929;50.810;8.342;2023-07-09T05:40:25;17.80;99.90
5806;DHT22;2929;50.810;8.342;2023-07-09T05:42:53;17.90;99.90
5806;DHT22;2929;50.810;8.342;2023-07-09T05:45:28;18.00;99.90
5806;DHT22;2929;50.810;8.342;2023-07-09T05:48:01;18.10;99.90
5806;DHT22;2929;50.810;8.342;2023-07-09T05:50:29;18.20;99.90
5806;DHT22;2929;50.810;8.342;2023-07-09T05:52:58;18.30;99.90
5806;DHT22;2929;50.810;8.342;2023-07-09T05:55:26;18.40;99.90
5806;DHT22;2929;50.810;8.342;2023-07-09T05:57:56;18.50;99.90
5806;DHT22;2929;50.810;8.342;2023-07-09T06:00:25;18.60;99.90
5806;DHT22;2929;50.810;8.342;2023-07-09T06:03:01;18.70;99.90
5806;DHT22;2929;50.810;8.342;2023-07-09T06:05:33;18.80;99.90
5806;DHT22;2929;50.810;8.342;2023-07-09T06:08:01;18.90;99.90
5806;DHT22;2929;50.810;8.342;2023-07-09T06:10:32;19.00;99.90
5806;DHT22;2929;50.810;8.342;2023-07-09T06:13:07;19.10;99.90
5806;DHT22;2929;50.810;8.342;2023-07-09T06:15:36;19.10;99.90
5806;DHT22;2929;50.810;8.342;2023-07-09T06:18:15;19.20;99.90
5806;DHT22;2929;50.810;8.342;2023-07-09T06:20:47;19.30;99.90
5806;DHT22;2929;50.810;8.342;2023-07-09T06:23:15;19.40;99.90
5806;DHT22;2929;50.810;8.342;2023-07-09T06:25:47;19.40;99.90
5806;DHT22;2929;50.810;8.342;2023-07-09T06:28:24;19.50;99.90
5806;DHT22;2929;50.810;8.342;2023-07-09T06:30:52;19.60;99.90
5806;DHT22;2929;50.810;8.342;2023-07-09T06:33:27;19.70;99.90
5806;DHT22;2929;50.810;8.342;2023-07-09T06:35:57;19.80;99.90
5806;DHT22;2929;50.810;8.342;2023-07-09T06:38:30;19.90;99.90
5806;DHT22;2929;50.810;8.342;2023-07-09T06:41:00;20.40;99.90
5806;DHT22;2929;50.810;8.342;2023-07-09T06:43:30;20.40;99.90
5806;DHT22;2929;50.810;8.342;2023-07-09T06:46:00;20.20;99.90
5806;DHT22;2929;50.810;8.342;2023-07-09T06:48:32;20.30;99.90
5806;DHT22;2929;50.810;8.342;2023-07-09T06:51:09;20.30;99.90
5806;DHT22;2929;50.810;8.342;2023-07-09T06:53:37;20.50;99.90
5806;DHT22;2929;50.810;8.342;2023-07-09T06:56:09;20.50;99.90
5806;DHT22;2929;50.810;8.342;2023-07-09T06:58:37;20.80;99.90
5806;DHT22;2929;50.810;8.342;2023-07-09T07:01:05;20.70;99.90
5806;DHT22;2929;50.810;8.342;2023-07-09T07:03:33;20.80;99.90
5806;DHT22;2929;50.810;8.342;2023-07-09T07:06:12;21.10;99.90
5806;DHT22;2929;50.810;8.342;2023-07-09T07:08:48;21.20;99.90
5806;DHT22;2929;50.810;8.342;2023-07-09T07:11:16;21.30;99.90
5806;DHT22;2929;50.810;8.342;2023-07-09T07:13:43;21.40;99.90
5806;DHT22;2929;50.810;8.342;2023-07-09T07:16:12;21.60;99.90
5806;DHT22;2929;50.810;8.342;2023-07-09T07:18:41;21.80;99.90
5806;DHT22;2929;50.810;8.342;2023-07-09T07:21:08;21.90;99.90
5806;DHT22;2929;50.810;8.342;2023-07-09T07:23:36;22.10;99.90
5806;DHT22;2929;50.810;8.342;2023-07-09T07:26:03;22.20;99.90
5806;DHT22;2929;50.810;8.342;2023-07-09T07:28:30;22.30;99.90
5806;DHT22;2929;50.810;8.342;2023-07-09T07:31:10;22.40;99.90
5806;DHT22;2929;50.810;8.342;2023-07-09T07:48:41;23.40;99.90
5806;DHT22;2929;50.810;8.342;2023-07-09T07:51:08;23.60;99.90
5806;DHT22;2929;50.810;8.342;2023-07-09T07:53:35;23.70;99.90
5806;DHT22;2929;50.810;8.342;2023-07-09T07:56:02;23.80;99.90
5806;DHT22;2929;50.810;8.342;2023-07-09T07:58:29;23.80;99.90
5806;DHT22;2929;50.810;8.342;2023-07-09T08:00:57;23.80;99.90
5806;DHT22;2929;50.810;8.342;2023-07-09T08:03:25;24.10;99.90
5806;DHT22;2929;50.810;8.342;2023-07-09T08:05:53;24.10;99.90
5806;DHT22;2929;50.810;8.342;2023-07-09T08:08:20;24.20;99.90
5806;DHT22;2929;50.810;8.342;2023-07-09T08:10:48;24.30;99.90
5806;DHT22;2929;50.810;8.342;2023-07-09T08:13:16;24.30;99.90
5806;DHT22;2929;50.810;8.342;2023-07-09T08:15:42;24.50;99.90
5806;DHT22;2929;50.810;8.342;2023-07-09T08:18:13;24.60;99.90
5806;DHT22;2929;50.810;8.342;2023-07-09T08:20:43;24.70;99.90
5806;DHT22;2929;50.810;8.342;2023-07-09T08:23:11;24.70;99.90
5806;DHT22;2929;50.810;8.342;2023-07-09T08:25:38;24.90;99.90
5806;DHT22;2929;50.810;8.342;2023-07-09T08:28:05;24.90;99.90
5806;DHT22;2929;50.810;8.342;2023-07-09T08:30:33;25.10;99.90
5806;DHT22;2929;50.810;8.342;2023-07-09T08:33:00;25.30;99.90
5806;DHT22;2929;50.810;8.342;2023-07-09T08:35:27;25.50;99.90
5806;DHT22;2929;50.810;8.342;2023-07-09T08:37:54;25.60;99.90
5806;DHT22;2929;50.810;8.342;2023-07-09T08:40:22;25.70;99.90
5806;DHT22;2929;50.810;8.342;2023-07-09T08:42:53;25.90;99.90
5806;DHT22;2929;50.810;8.342;2023-07-09T08:45:29;25.90;99.90
5806;DHT22;2929;50.810;8.342;2023-07-09T08:48:04;26.00;99.90
5806;DHT22;2929;50.810;8.342;2023-07-09T08:50:36;26.10;99.90
5806;DHT22;2929;50.810;8.342;2023-07-09T08:53:05;26.30;99.90
5806;DHT22;2929;50.810;8.342;2023-07-09T08:55:36;26.40;99.90
5806;DHT22;2929;50.810;8.342;2023-07-09T08:58:12;26.60;99.90
5806;DHT22;2929;50.810;8.342;2023-07-09T09:00:45;26.70;99.90
5806;DHT22;2929;50.810;8.342;2023-07-09T09:03:20;26.80;99.90
5806;DHT22;2929;50.810;8.342;2023-07-09T09:05:50;27.00;99.90
5806;DHT22;2929;50.810;8.342;2023-07-09T09:08:27;27.00;99.90
5806;DHT22;2929;50.810;8.342;2023-07-09T09:11:07;27.00;99.90
5806;DHT22;2929;50.810;8.342;2023-07-09T09:13:38;27.20;99.90
5806;DHT22;2929;50.810;8.342;2023-07-09T09:16:11;27.30;99.90
5806;DHT22;2929;50.810;8.342;2023-07-09T09:18:42;27.40;99.90
5806;DHT22;2929;50.810;8.342;2023-07-09T09:21:15;27.50;99.90
5806;DHT22;2929;50.810;8.342;2023-07-09T09:23:46;27.60;99.90
5806;DHT22;2929;50.810;8.342;2023-07-09T09:26:18;27.60;99.90
5806;DHT22;2929;50.810;8.342;2023-07-09T09:28:48;27.50;99.90
5806;DHT22;2929;50.810;8.342;2023-07-09T09:31:15;27.60;99.90
5806;DHT22;2929;50.810;8.342;2023-07-09T09:33:46;28.00;99.90
5806;DHT22;2929;50.810;8.342;2023-07-09T09:36:16;28.00;99.90
5806;DHT22;2929;50.810;8.342;2023-07-09T09:38:43;28.10;99.90
5806;DHT22;2929;50.810;8.342;2023-07-09T09:41:17;28.20;99.90
5806;DHT22;2929;50.810;8.342;2023-07-09T09:43:45;28.30;99.90
5806;DHT22;2929;50.810;8.342;2023-07-09T09:46:17;28.30;99.90
5806;DHT22;2929;50.810;8.342;2023-07-09T09:48:46;28.10;99.90
5806;DHT22;2929;50.810;8.342;2023-07-09T09:51:14;28.30;99.60
5806;DHT22;2929;50.810;8.342;2023-07-09T09:53:47;28.50;98.90
5806;DHT22;2929;50.810;8.342;2023-07-09T09:56:19;28.60;98.60
5806;DHT22;2929;50.810;8.342;2023-07-09T09:58:51;28.80;99.40
5806;DHT22;2929;50.810;8.342;2023-07-09T10:01:18;29.00;97.90
5806;DHT22;2929;50.810;8.342;2023-07-09T10:03:48;28.90;99.60
5806;DHT22;2929;50.810;8.342;2023-07-09T10:06:19;28.90;99.90
5806;DHT22;2929;50.810;8.342;2023-07-09T10:08:54;29.00;99.90
5806;DHT22;2929;50.810;8.342;2023-07-09T10:11:30;29.20;98.10
5806;DHT22;2929;50.810;8.342;2023-07-09T10:14:03;29.00;97.00
5806;DHT22;2929;50.810;8.342;2023-07-09T10:16:36;29.10;95.60
5806;DHT22;2929;50.810;8.342;2023-07-09T10:19:14;29.30;93.10
5806;DHT22;2929;50.810;8.342;2023-07-09T10:21:46;29.30;92.30
5806;DHT22;2929;50.810;8.342;2023-07-09T10:24:25;29.40;91.20
5806;DHT22;2929;50.810;8.342;2023-07-09T10:27:03;29.60;91.30
5806;DHT22;2929;50.810;8.342;2023-07-09T10:29:46;29.90;93.60
5806;DHT22;2929;50.810;8.342;2023-07-09T10:32:27;29.80;93.30
5806;DHT22;2929;50.810;8.342;2023-07-09T10:34:58;29.90;96.70
5806;DHT22;2929;50.810;8.342;2023-07-09T10:40:31;30.20;94.70
5806;DHT22;2929;50.810;8.342;2023-07-09T10:43:03;30.20;92.50
5806;DHT22;2929;50.810;8.342;2023-07-09T10:45:34;30.40;90.40
5806;DHT22;2929;50.810;8.342;2023-07-09T10:48:09;30.30;90.70
5806;DHT22;2929;50.810;8.342;2023-07-09T10:50:41;30.60;92.40
5806;DHT22;2929;50.810;8.342;2023-07-09T10:53:23;30.60;91.90
5806;DHT22;2929;50.810;8.342;2023-07-09T10:55:56;31.00;90.40
5806;DHT22;2929;50.810;8.342;2023-07-09T10:58:32;31.20;90.60
5806;DHT22;2929;50.810;8.342;2023-07-09T11:01:02;31.40;90.50
5806;DHT22;2929;50.810;8.342;2023-07-09T11:12:45;31.90;84.70
5806;DHT22;2929;50.810;8.342;2023-07-09T11:15:16;31.70;87.90
5806;DHT22;2929;50.810;8.342;2023-07-09T11:17:47;32.00;84.60
5806;DHT22;2929;50.810;8.342;2023-07-09T11:20:20;32.20;81.00
5806;DHT22;2929;50.810;8.342;2023-07-09T11:22:52;32.10;84.50
5806;DHT22;2929;50.810;8.342;2023-07-09T11:25:28;32.40;85.00
5806;DHT22;2929;50.810;8.342;2023-07-09T11:28:04;32.70;80.30
5806;DHT22;2929;50.810;8.342;2023-07-09T11:30:33;32.90;81.00
5806;DHT22;2929;50.810;8.342;2023-07-09T11:33:17;33.10;78.20
5806;DHT22;2929;50.810;8.342;2023-07-09T11:35:47;33.50;77.60
5806;DHT22;2929;50.810;8.342;2023-07-09T11:38:17;33.90;80.90
5806;DHT22;2929;50.810;8.342;2023-07-09T11:40:49;33.80;76.00
5806;DHT22;2929;50.810;8.342;2023-07-09T11:43:29;34.00;76.40
5806;DHT22;2929;50.810;8.342;2023-07-09T11:46:06;34.90;73.90
5806;DHT22;2929;50.810;8.342;2023-07-09T11:48:35;33.80;73.60
5806;DHT22;2929;50.810;8.342;2023-07-09T11:51:08;34.20;70.80
5806;DHT22;2929;50.810;8.342;2023-07-09T11:53:41;34.50;69.20
5806;DHT22;2929;50.810;8.342;2023-07-09T11:56:10;34.20;74.00
5806;DHT22;2929;50.810;8.342;2023-07-09T11:58:49;34.70;70.40
5806;DHT22;2929;50.810;8.342;2023-07-09T12:01:20;34.90;67.40
5806;DHT22;2929;50.810;8.342;2023-07-09T12:03:50;34.90;66.30
5806;DHT22;2929;50.810;8.342;2023-07-09T12:06:20;35.00;68.20
5806;DHT22;2929;50.810;8.342;2023-07-09T12:08:49;34.90;66.70
5806;DHT22;2929;50.810;8.342;2023-07-09T12:11:19;34.80;68.30
5806;DHT22;2929;50.810;8.342;2023-07-09T12:13:47;35.50;63.00
5806;DHT22;2929;50.810;8.342;2023-07-09T12:16:24;35.70;63.40
5806;DHT22;2929;50.810;8.342;2023-07-09T12:18:53;35.90;62.60
5806;DHT22;2929;50.810;8.342;2023-07-09T12:21:22;36.00;63.80
5806;DHT22;2929;50.810;8.342;2023-07-09T12:23:50;36.10;62.90
5806;DHT22;2929;50.810;8.342;2023-07-09T12:26:19;36.20;58.80
5806;DHT22;2929;50.810;8.342;2023-07-09T12:28:51;36.20;57.90
5806;DHT22;2929;50.810;8.342;2023-07-09T12:31:25;36.40;57.90
5806;DHT22;2929;50.810;8.342;2023-07-09T12:33:53;36.20;56.90
5806;DHT22;2929;50.810;8.342;2023-07-09T12:36:21;36.30;55.40
5806;DHT22;2929;50.810;8.342;2023-07-09T12:38:53;36.50;55.70
5806;DHT22;2929;50.810;8.342;2023-07-09T12:41:32;36.90;55.10
5806;DHT22;2929;50.810;8.342;2023-07-09T12:44:01;36.40;56.80
5806;DHT22;2929;50.810;8.342;2023-07-09T12:46:30;36.40;54.30
5806;DHT22;2929;50.810;8.342;2023-07-09T12:48:58;36.70;54.10
5806;DHT22;2929;50.810;8.342;2023-07-09T12:51:29;36.00;54.50
5806;DHT22;2929;50.810;8.342;2023-07-09T12:54:13;36.00;53.30
5806;DHT22;2929;50.810;8.342;2023-07-09T12:56:41;36.50;55.00
5806;DHT22;2929;50.810;8.342;2023-07-09T12:59:16;36.50;52.60
5806;DHT22;2929;50.810;8.342;2023-07-09T13:01:50;36.40;55.10
5806;DHT22;2929;50.810;8.342;2023-07-09T13:04:17;36.60;54.10
5806;DHT22;2929;50.810;8.342;2023-07-09T13:06:45;36.60;51.90
5806;DHT22;2929;50.810;8.342;2023-07-09T13:09:18;36.50;55.30
5806;DHT22;2929;50.810;8.342;2023-07-09T13:11:47;36.30;52.40
5806;DHT22;2929;50.810;8.342;2023-07-09T13:14:18;36.90;53.10
5806;DHT22;2929;50.810;8.342;2023-07-09T13:16:45;36.60;54.90
5806;DHT22;2929;50.810;8.342;2023-07-09T13:19:14;36.60;51.20
5806;DHT22;2929;50.810;8.342;2023-07-09T13:21:41;36.60;51.80
5806;DHT22;2929;50.810;8.342;2023-07-09T13:24:19;36.30;52.20
5806;DHT22;2929;50.810;8.342;2023-07-09T13:26:47;36.40;49.80
5806;DHT22;2929;50.810;8.342;2023-07-09T13:29:16;36.90;51.90
5806;DHT22;2929;50.810;8.342;2023-07-09T13:31:44;36.80;52.30
5806;DHT22;2929;50.810;8.342;2023-07-09T13:34:19;36.70;53.40
5806;DHT22;2929;50.810;8.342;2023-07-09T13:36:47;36.80;48.20
5806;DHT22;2929;50.810;8.342;2023-07-09T13:39:14;36.40;50.00
5806;DHT22;2929;50.810;8.342;2023-07-09T13:41:43;35.80;49.30
5806;DHT22;2929;50.810;8.342;2023-07-09T13:44:12;35.40;52.70
5806;DHT22;2929;50.810;8.342;2023-07-09T13:46:40;35.80;53.80
5806;DHT22;2929;50.810;8.342;2023-07-09T13:49:09;36.50;52.30
5806;DHT22;2929;50.810;8.342;2023-07-09T13:51:39;37.00;50.10
5806;DHT22;2929;50.810;8.342;2023-07-09T13:54:14;37.30;48.90
5806;DHT22;2929;50.810;8.342;2023-07-09T13:56:53;37.40;46.10
5806;DHT22;2929;50.810;8.342;2023-07-09T13:59:56;37.00;48.90
5806;DHT22;2929;50.810;8.342;2023-07-09T14:02:41;36.90;45.90
5806;DHT22;2929;50.810;8.342;2023-07-09T14:05:42;36.60;46.30
5806;DHT22;2929;50.810;8.342;2023-07-09T14:08:19;35.90;48.30
5806;DHT22;2929;50.810;8.342;2023-07-09T14:10:48;35.30;47.90
5806;DHT22;2929;50.810;8.342;2023-07-09T14:13:24;34.80;50.90
5806;DHT22;2929;50.810;8.342;2023-07-09T14:15:51;34.60;51.80
5806;DHT22;2929;50.810;8.342;2023-07-09T14:18:20;34.70;49.30
5806;DHT22;2929;50.810;8.342;2023-07-09T14:20:47;34.60;51.90
5806;DHT22;2929;50.810;8.342;2023-07-09T14:23:21;35.00;52.40
5806;DHT22;2929;50.810;8.342;2023-07-09T14:25:50;35.40;51.70
5806;DHT22;2929;50.810;8.342;2023-07-09T14:28:19;35.70;52.40
5806;DHT22;2929;50.810;8.342;2023-07-09T14:30:49;36.30;48.20
5806;DHT22;2929;50.810;8.342;2023-07-09T14:33:18;36.40;50.70
5806;DHT22;2929;50.810;8.342;2023-07-09T14:35:46;36.60;51.30
5806;DHT22;2929;50.810;8.342;2023-07-09T14:38:17;36.90;47.30
5806;DHT22;2929;50.810;8.342;2023-07-09T14:40:47;36.70;48.00
5806;DHT22;2929;50.810;8.342;2023-07-09T14:43:14;36.00;52.40
5806;DHT22;2929;50.810;8.342;2023-07-09T14:45:42;35.20;52.40
5806;DHT22;2929;50.810;8.342;2023-07-09T14:48:10;34.50;51.60
5806;DHT22;2929;50.810;8.342;2023-07-09T15:00:43;32.70;64.90
5806;DHT22;2929;50.810;8.342;2023-07-09T15:03:18;32.70;65.20
5806;DHT22;2929;50.810;8.342;2023-07-09T15:05:45;32.60;62.70
5806;DHT22;2929;50.810;8.342;2023-07-09T15:08:13;32.50;63.40
5806;DHT22;2929;50.810;8.342;2023-07-09T15:10:40;32.40;64.40
5806;DHT22;2929;50.810;8.342;2023-07-09T15:13:17;32.40;62.20
5806;DHT22;2929;50.810;8.342;2023-07-09T15:15:44;32.30;66.20
5806;DHT22;2929;50.810;8.342;2023-07-09T15:18:13;32.30;62.90
5806;DHT22;2929;50.810;8.342;2023-07-09T15:20:43;32.20;64.20
5806;DHT22;2929;50.810;8.342;2023-07-09T15:23:12;32.20;62.90
5806;DHT22;2929;50.810;8.342;2023-07-09T15:25:39;32.30;62.30
5806;DHT22;2929;50.810;8.342;2023-07-09T15:28:05;32.10;63.30
5806;DHT22;2929;50.810;8.342;2023-07-09T15:30:36;32.20;61.00
5806;DHT22;2929;50.810;8.342;2023-07-09T15:33:05;32.20;62.10
5806;DHT22;2929;50.810;8.342;2023-07-09T15:35:33;32.20;60.80
5806;DHT22;2929;50.810;8.342;2023-07-09T15:38:02;32.10;61.00
5806;DHT22;2929;50.810;8.342;2023-07-09T15:40:30;32.00;58.20
5806;DHT22;2929;50.810;8.342;2023-07-09T15:43:02;32.00;60.80
5806;DHT22;2929;50.810;8.342;2023-07-09T15:45:30;31.90;59.80
5806;DHT22;2929;50.810;8.342;2023-07-09T15:47:59;31.80;62.00
5806;DHT22;2929;50.810;8.342;2023-07-09T15:50:27;31.70;60.20
5806;DHT22;2929;50.810;8.342;2023-07-09T15:52:54;31.60;58.70
5806;DHT22;2929;50.810;8.342;2023-07-09T15:55:23;31.50;57.80
5806;DHT22;2929;50.810;8.342;2023-07-09T15:57:52;31.60;57.30
5806;DHT22;2929;50.810;8.342;2023-07-09T16:00:21;31.40;57.90
5806;DHT22;2929;50.810;8.342;2023-07-09T16:02:50;31.40;60.20
5806;DHT22;2929;50.810;8.342;2023-07-09T16:05:21;31.20;61.60
5806;DHT22;2929;50.810;8.342;2023-07-09T16:07:50;31.20;59.70
5806;DHT22;2929;50.810;8.342;2023-07-09T16:10:17;31.00;59.60
5806;DHT22;2929;50.810;8.342;2023-07-09T16:12:46;30.90;62.50
5806;DHT22;2929;50.810;8.342;2023-07-09T16:15:16;30.60;65.10
5806;DHT22;2929;50.810;8.342;2023-07-09T16:17:44;29.20;71.10
5806;DHT22;2929;50.810;8.342;2023-07-09T16:20:13;28.00;80.20
5806;DHT22;2929;50.810;8.342;2023-07-09T16:22:43;27.10;88.20
5806;DHT22;2929;50.810;8.342;2023-07-09T16:25:15;26.60;91.90
5806;DHT22;2929;50.810;8.342;2023-07-09T16:27:43;26.30;94.80
5806;DHT22;2929;50.810;8.342;2023-07-09T16:30:13;26.20;96.80
5806;DHT22;2929;50.810;8.342;2023-07-09T16:32:41;26.10;98.70
5806;DHT22;2929;50.810;8.342;2023-07-09T16:35:11;26.10;99.90
5806;DHT22;2929;50.810;8.342;2023-07-09T16:37:38;25.90;99.90
5806;DHT22;2929;50.810;8.342;2023-07-09T16:40:13;25.70;99.90
5806;DHT22;2929;50.810;8.342;2023-07-09T16:42:41;25.50;99.90
5806;DHT22;2929;50.810;8.342;2023-07-09T16:45:08;25.40;99.90
5806;DHT22;2929;50.810;8.342;2023-07-09T16:47:36;25.30;99.90
5806;DHT22;2929;50.810;8.342;2023-07-09T16:50:04;25.20;99.90
5806;DHT22;2929;50.810;8.342;2023-07-09T16:52:31;25.20;99.90
5806;DHT22;2929;50.810;8.342;2023-07-09T16:54:58;25.20;99.90
5806;DHT22;2929;50.810;8.342;2023-07-09T16:57:29;25.10;99.90
5806;DHT22;2929;50.810;8.342;2023-07-09T17:00:20;25.10;99.90
5806;DHT22;2929;50.810;8.342;2023-07-09T17:02:47;25.10;99.90
5806;DHT22;2929;50.810;8.342;2023-07-09T17:05:15;24.90;99.90
5806;DHT22;2929;50.810;8.342;2023-07-09T17:07:42;24.90;99.90
5806;DHT22;2929;50.810;8.342;2023-07-09T17:10:10;24.90;99.90